createdAt,value
2022-09-23T00:03:29.096Z,0.60
2022-09-23T00:08:33.736Z,0.80
2022-09-23T00:13:37.498Z,0.90
2022-09-23T00:18:40.757Z,0.80
2022-09-23T00:23:45.226Z,0.80
2022-09-23T00:28:48.979Z,0.70
2022-09-23T00:33:55.640Z,0.87
2022-09-23T00:39:00.167Z,1.00
2022-09-23T00:44:23.940Z,0.73
2022-09-23T00:49:31.574Z,0.67
2022-09-23T00:54:34.650Z,0.90
2022-09-23T00:59:38.206Z,0.70
2022-09-23T01:04:43.603Z,0.70
2022-09-23T01:09:47.922Z,0.90
2022-09-23T01:14:57.484Z,0.60
2022-09-23T01:20:22.108Z,1.00
2022-09-23T01:25:49.311Z,1.00
2022-09-23T01:30:58.956Z,1.33
2022-09-23T01:36:14.696Z,0.97
2022-09-23T01:41:40.552Z,1.20
2022-09-23T01:46:50.589Z,0.97
2022-09-23T01:51:58.231Z,0.83
2022-09-23T01:57:05.326Z,0.97
2022-09-23T02:02:15.220Z,0.70
2022-09-23T02:07:22.997Z,0.97
2022-09-23T02:12:29.475Z,0.90
2022-09-23T02:17:40.602Z,0.73
2022-09-23T02:22:54.967Z,0.90
2022-09-23T02:28:04.924Z,0.80
2022-09-23T02:33:18.461Z,0.70
2022-09-23T02:38:30.243Z,0.67
2022-09-23T02:43:39.079Z,0.77
2022-09-23T02:48:49.530Z,0.70
2022-09-23T02:53:52.598Z,1.20
2022-09-23T02:58:56.615Z,0.80
2022-09-23T03:04:13.114Z,0.97
2022-09-23T03:09:26.698Z,0.90
2022-09-23T03:14:37.670Z,0.77
2022-09-23T03:19:47.764Z,0.80
2022-09-23T03:24:54.141Z,0.87
2022-09-23T03:29:58.331Z,0.73
2022-09-23T03:35:04.888Z,0.80
2022-09-23T03:40:13.189Z,0.80
2022-09-23T03:45:20.239Z,0.70
2022-09-23T03:50:24.740Z,0.60
2022-09-23T03:55:27.816Z,0.80
2022-09-23T04:00:30.697Z,0.83
2022-09-23T04:05:35.882Z,0.90
2022-09-23T04:10:42.292Z,0.80
2022-09-23T04:15:45.192Z,0.70
2022-09-23T04:20:49.922Z,0.80
2022-09-23T04:25:53.091Z,0.80
2022-09-23T04:30:57.746Z,1.00
2022-09-23T04:36:02.440Z,0.97
2022-09-23T04:41:05.735Z,0.80
2022-09-23T04:46:11.037Z,1.00
2022-09-23T04:51:17.536Z,1.00
2022-09-23T04:56:22.315Z,0.80
2022-09-23T05:01:27.483Z,0.90
2022-09-23T05:06:32.983Z,0.83
2022-09-23T05:11:36.563Z,0.80
2022-09-23T05:16:39.505Z,0.87
2022-09-23T05:21:43.825Z,0.93
2022-09-23T05:26:46.705Z,0.80
2022-09-23T05:31:49.645Z,1.00
2022-09-23T05:36:54.305Z,0.73
2022-09-23T05:41:57.678Z,0.73
2022-09-23T05:47:00.626Z,0.90
2022-09-23T05:52:05.073Z,0.90
2022-09-23T05:57:07.968Z,0.80
2022-09-23T06:02:11.117Z,0.70
2022-09-23T06:07:15.404Z,0.70
2022-09-23T06:12:18.315Z,0.87
2022-09-23T06:17:21.198Z,0.80
2022-09-23T06:22:26.786Z,0.80
2022-09-23T06:27:29.642Z,0.93
2022-09-23T06:32:32.554Z,0.90
2022-09-23T06:37:36.791Z,1.03
2022-09-23T06:42:39.673Z,1.53
2022-09-23T06:47:43.313Z,1.40
2022-09-23T06:52:56.196Z,1.30
2022-09-23T06:57:59.694Z,1.17
2022-09-23T07:03:03.490Z,1.17
2022-09-23T07:08:10.374Z,1.47
2022-09-23T07:13:16.240Z,1.20
2022-09-23T07:18:19.741Z,1.47
2022-09-23T07:23:24.028Z,1.70
2022-09-23T07:28:29.172Z,1.50
2022-09-23T07:33:33.400Z,1.27
2022-09-23T07:38:42.796Z,1.00
2022-09-23T07:43:48.931Z,1.10
2022-09-23T07:48:53.044Z,1.20
2022-09-23T07:53:57.974Z,1.50
2022-09-23T07:59:01.710Z,1.07
2022-09-23T08:04:06.839Z,1.20
2022-09-23T08:09:11.771Z,1.03
2022-09-23T08:14:17.810Z,1.00
2022-09-23T08:19:21.176Z,1.10
2022-09-23T08:24:26.731Z,1.20
2022-09-23T08:29:29.735Z,1.00
2022-09-23T08:34:32.616Z,1.00
2022-09-23T08:39:36.866Z,1.03
2022-09-23T08:44:48.013Z,1.10
2022-09-23T08:50:02.233Z,1.03
2022-09-23T08:55:12.480Z,0.87
2022-09-23T09:00:21.000Z,0.87
2022-09-23T09:05:27.517Z,0.70
2022-09-23T09:10:41.655Z,1.13
2022-09-23T09:15:50.858Z,1.00
2022-09-23T09:21:00.607Z,1.03
2022-09-23T09:26:06.939Z,1.10
2022-09-23T09:31:24.154Z,0.97
2022-09-23T09:36:36.488Z,1.10
2022-09-23T09:41:42.640Z,1.20
2022-09-23T09:46:56.682Z,1.10
2022-09-23T09:52:14.279Z,1.27
2022-09-23T09:57:32.096Z,1.03
2022-09-23T10:02:40.648Z,1.23
2022-09-23T10:07:43.527Z,1.10
2022-09-23T10:12:48.999Z,1.03
2022-09-23T10:17:52.433Z,1.07
2022-09-23T10:22:56.670Z,0.93
2022-09-23T10:28:30.717Z,1.30
2022-09-23T10:33:33.664Z,1.00
2022-09-23T10:38:36.680Z,1.20
2022-09-23T10:44:05.826Z,1.50
2022-09-23T10:49:34.130Z,1.10
2022-09-23T10:54:50.273Z,1.15
2022-09-23T11:00:02.863Z,1.15
2022-09-23T11:05:20.802Z,1.15
2022-09-23T11:10:51.977Z,1.00
2022-09-23T11:16:06.592Z,1.10
2022-09-23T11:21:24.925Z,0.95
2022-09-23T11:26:36.608Z,1.20
2022-09-23T11:31:56.149Z,1.02
2022-09-23T11:37:05.786Z,0.90
2022-09-23T11:42:18.854Z,1.10
2022-09-23T11:47:27.336Z,0.98
2022-09-23T11:52:34.842Z,1.13
2022-09-23T11:57:48.928Z,1.00
2022-09-23T12:03:06.321Z,0.88
2022-09-23T12:08:17.876Z,0.95
2022-09-23T12:13:27.168Z,0.90
2022-09-23T12:18:43.876Z,0.98
2022-09-23T12:24:04.742Z,0.95
2022-09-23T12:29:11.685Z,0.90
2022-09-23T12:34:25.977Z,0.80
2022-09-23T12:39:32.264Z,1.00
2022-09-23T12:44:39.164Z,0.90
2022-09-23T12:49:44.231Z,1.20
2022-09-23T12:54:48.547Z,1.02
2022-09-23T12:59:58.258Z,0.75
2022-09-23T13:05:32.931Z,0.80
2022-09-23T13:10:43.197Z,0.98
2022-09-23T13:15:46.674Z,0.90
2022-09-23T13:20:52.606Z,0.93
2022-09-23T13:25:57.919Z,1.00
2022-09-23T13:31:05.567Z,1.00
2022-09-23T13:36:14.501Z,0.82
2022-09-23T13:41:20.033Z,0.90
2022-09-23T13:46:25.705Z,0.90
2022-09-23T13:51:32.668Z,1.02
2022-09-23T13:56:37.750Z,0.77
2022-09-23T14:01:40.647Z,0.98
2022-09-23T14:06:44.996Z,0.70
2022-09-23T14:11:48.020Z,0.82
2022-09-23T14:16:52.694Z,0.80
2022-09-23T14:21:58.811Z,0.95
2022-09-23T14:27:08.108Z,0.90
2022-09-23T14:32:14.577Z,1.10
2022-09-23T14:37:43.802Z,0.90
2022-09-23T14:42:49.844Z,1.10
2022-09-23T14:47:57.735Z,0.90
2022-09-23T14:53:02.781Z,1.02
2022-09-23T14:58:16.570Z,0.88
2022-09-23T15:03:21.027Z,0.90
2022-09-23T15:08:28.506Z,0.90
2022-09-23T15:13:34.483Z,1.15
2022-09-23T15:18:39.357Z,0.82
2022-09-23T15:23:48.556Z,0.90
2022-09-23T15:28:54.065Z,0.98
2022-09-23T15:33:57.167Z,0.90
2022-09-23T15:39:06.256Z,0.85
2022-09-23T15:44:13.420Z,0.70
2022-09-23T15:49:29.832Z,0.90
2022-09-23T15:54:34.190Z,0.75
2022-09-23T15:59:38.150Z,0.88
2022-09-23T16:04:41.028Z,0.75
2022-09-23T16:09:45.237Z,0.80
2022-09-23T16:14:48.147Z,0.70
2022-09-23T16:19:51.012Z,0.70
2022-09-23T16:24:55.481Z,0.65
2022-09-23T16:29:58.349Z,0.77
2022-09-23T16:35:01.237Z,0.60
2022-09-23T16:40:22.683Z,0.80
2022-09-23T16:45:26.145Z,0.70
2022-09-23T16:50:29.743Z,0.80
2022-09-23T16:55:33.972Z,0.80
2022-09-23T17:00:54.655Z,0.88
2022-09-23T17:05:57.748Z,0.77
2022-09-23T17:11:02.126Z,0.90
2022-09-23T17:16:05.234Z,0.75
2022-09-23T17:21:08.958Z,0.90
2022-09-23T17:26:13.922Z,0.70
2022-09-23T17:31:16.861Z,0.75
2022-09-23T17:36:21.220Z,0.60
2022-09-23T17:41:25.461Z,0.90
2022-09-23T17:46:30.900Z,1.10
2022-09-23T17:51:33.774Z,0.95
2022-09-23T17:56:38.021Z,0.90
2022-09-23T18:01:40.932Z,0.90
2022-09-23T18:06:43.803Z,0.90
2022-09-23T18:11:49.276Z,0.90
2022-09-23T18:16:53.542Z,1.20
2022-09-23T18:21:57.427Z,1.00
2022-09-23T18:27:02.004Z,1.00
2022-09-23T18:32:05.021Z,0.77
2022-09-23T18:37:15.352Z,0.77
2022-09-23T18:42:20.463Z,0.90
2022-09-23T18:47:37.411Z,1.40
2022-09-23T18:52:40.300Z,1.70
2022-09-23T18:57:45.070Z,1.50
2022-09-23T19:02:48.016Z,0.97
2022-09-23T19:07:50.904Z,1.23
2022-09-23T19:12:55.157Z,2.27
2022-09-23T19:17:58.004Z,1.97
2022-09-23T19:23:00.845Z,1.60
2022-09-23T19:28:08.252Z,1.47
2022-09-23T19:33:11.116Z,1.60
2022-09-23T19:38:14.371Z,1.50
2022-09-23T19:43:20.144Z,1.43
2022-09-23T19:48:23.244Z,1.00
2022-09-23T19:53:28.298Z,1.00
2022-09-23T19:58:33.027Z,1.10
2022-09-23T20:03:36.111Z,1.07
2022-09-23T20:08:39.564Z,0.87
2022-09-23T20:13:45.764Z,1.23
2022-09-23T20:18:53.128Z,1.00
2022-09-23T20:23:56.223Z,1.00
2022-09-23T20:29:01.472Z,1.00
2022-09-23T20:34:05.838Z,0.97
2022-09-23T20:39:09.880Z,1.17
2022-09-23T20:44:14.169Z,0.87
2022-09-23T20:49:18.022Z,1.10
2022-09-23T20:54:20.982Z,0.87
2022-09-23T20:59:25.319Z,1.00
2022-09-23T21:04:28.263Z,0.80
2022-09-23T21:09:31.933Z,1.10
2022-09-23T21:14:36.157Z,1.30
2022-09-23T21:19:39.038Z,1.13
2022-09-23T21:30:07.440Z,1.40
2022-09-23T21:35:10.892Z,1.60
2022-09-23T21:40:31.750Z,1.50
2022-09-23T21:45:35.979Z,1.17
2022-09-23T21:50:40.869Z,1.20
2022-09-23T21:55:43.765Z,1.40
2022-09-23T22:00:48.032Z,1.30
2022-09-23T22:06:02.498Z,1.20
2022-09-23T22:11:07.592Z,0.90
2022-09-23T22:16:16.555Z,1.20
2022-09-23T22:21:20.508Z,1.03
2022-09-23T22:26:23.500Z,1.10
2022-09-23T22:31:50.383Z,0.80
2022-09-23T22:36:53.338Z,1.50
2022-09-23T22:41:57.066Z,1.40
2022-09-23T22:47:02.055Z,1.37
2022-09-23T22:52:08.339Z,0.97
2022-09-23T22:57:11.524Z,1.20
2022-09-23T23:02:16.450Z,1.20
2022-09-23T23:07:21.553Z,0.90
2022-09-23T23:12:24.527Z,1.20
2022-09-23T23:17:29.801Z,1.20
2022-09-23T23:22:32.704Z,1.03
2022-09-23T23:27:35.980Z,1.17
2022-09-23T23:32:40.632Z,0.90
2022-09-23T23:37:43.533Z,1.10
2022-09-23T23:42:47.015Z,0.90
2022-09-23T23:47:51.254Z,1.20
2022-09-23T23:52:54.152Z,0.80
2022-09-23T23:57:57.199Z,0.93
